Time;durP1;ratioP1;P1;durP2;ratioP2;P2;SDS_P1;SDS_P2;PMS_P1;PMS_P2;Temp;Humidity;BMP_temperature;BMP_pressure;BME280_temperature;BME280_humidity;BME280_pressure;Samples;Min_cycle;Max_cycle;Signal;HPM_P1;HPM_P2
2023/01/29 00:02:08;;;;;;;36.47;16.70;;;;;;;-4.37;100.00;102953.06;5029932;28;20033;-84
2023/01/29 00:04:33;;;;;;;36.37;16.30;;;;;;;-4.30;100.00;102958.72;5029527;28;20079;-85
2023/01/29 00:06:59;;;;;;;37.33;17.23;;;;;;;-4.22;100.00;102953.78;5029693;28;20575;-84
2023/01/29 00:09:25;;;;;;;36.90;16.00;;;;;;;-4.17;100.00;102929.91;5033441;28;20037;-85
2023/01/29 00:11:50;;;;;;;35.97;16.17;;;;;;;-3.96;100.00;102940.63;5033955;28;20495;-82
2023/01/29 00:14:15;;;;;;;40.40;16.90;;;;;;;-3.81;100.00;102942.13;5031113;28;20033;-82
2023/01/29 00:16:41;;;;;;;38.40;16.07;;;;;;;-3.68;100.00;102939.47;5033794;28;20290;-82
2023/01/29 00:19:06;;;;;;;38.23;15.50;;;;;;;-3.63;100.00;102939.13;5031999;28;20025;-82
2023/01/29 00:21:32;;;;;;;33.00;14.30;;;;;;;-3.57;100.00;102935.25;5033148;28;20052;-82
2023/01/29 00:23:58;;;;;;;35.92;15.50;;;;;;;-3.53;100.00;102937.53;5033481;28;20514;-84
2023/01/29 00:26:24;;;;;;;33.08;14.20;;;;;;;-3.54;100.00;102929.75;5033929;28;20017;-83
2023/01/29 00:28:50;;;;;;;35.80;13.73;;;;;;;-3.52;100.00;102933.13;5032795;28;20156;-83
2023/01/29 00:31:21;;;;;;;35.83;14.43;;;;;;;-3.47;100.00;102927.56;5034235;28;20280;-83
2023/01/29 00:33:48;;;;;;;34.00;14.07;;;;;;;-3.46;100.00;102930.06;5044108;28;20037;-84
2023/01/29 00:36:15;;;;;;;35.83;14.03;;;;;;;-3.44;100.00;102933.41;5040296;28;20041;-82
2023/01/29 00:38:41;;;;;;;30.60;13.75;;;;;;;-3.40;100.00;102934.00;5037293;28;20037;-81
2023/01/29 00:46:40;;;;;;;29.93;12.47;;;;;;;-3.37;100.00;102928.53;5033710;28;20577;-81
2023/01/29 00:49:06;;;;;;;34.60;13.23;;;;;;;-3.42;100.00;102914.94;5031974;28;20371;-81
2023/01/29 00:51:31;;;;;;;34.10;13.37;;;;;;;-3.38;100.00;102916.38;5035527;28;20037;-80
2023/01/29 00:53:58;;;;;;;30.50;13.90;;;;;;;-3.38;100.00;102903.28;5035467;28;20280;-81
2023/01/29 00:56:24;;;;;;;34.05;13.77;;;;;;;-3.31;100.00;102898.41;5033131;28;20040;-82
2023/01/29 00:58:50;;;;;;;36.23;13.67;;;;;;;-3.30;100.00;102906.16;5033821;28;20389;-84
2023/01/29 01:03:04;;;;;;;31.33;12.97;;;;;;;-3.36;100.00;102888.25;5034482;28;20350;-81
2023/01/29 01:04:02;;;;;;;30.90;12.88;;;;;;;-3.37;100.00;102886.59;5032602;28;20177;-82
2023/01/29 01:06:27;;;;;;;30.90;12.43;;;;;;;-3.40;100.00;102886.81;5030515;28;20110;-82
2023/01/29 01:11:38;;;;;;;34.08;13.13;;;;;;;-3.42;100.00;102893.94;5031189;28;20041;-82
2023/01/29 01:14:05;;;;;;;31.38;13.05;;;;;;;-3.50;100.00;102884.03;5032307;28;20033;-82
2023/01/29 01:16:30;;;;;;;33.05;14.25;;;;;;;-3.51;100.00;102890.22;5032266;28;20033;-82
2023/01/29 01:18:55;;;;;;;32.87;13.27;;;;;;;-3.56;100.00;102890.56;5030437;28;20033;-82
2023/01/29 01:21:21;;;;;;;28.20;12.37;;;;;;;-3.67;100.00;102896.59;5032733;28;20036;-82
2023/01/29 01:23:46;;;;;;;33.17;13.40;;;;;;;-3.74;100.00;102894.53;5031865;28;20053;-82
2023/01/29 01:28:47;;;;;;;30.90;13.07;;;;;;;-3.92;100.00;102892.31;6133456;22;20013;-81
2023/01/29 01:31:13;;;;;;;29.40;11.70;;;;;;;-4.01;100.00;102890.34;5051485;28;20348;-81
2023/01/29 01:33:39;;;;;;;32.37;12.90;;;;;;;-4.14;100.00;102883.38;5052291;28;20047;-81
2023/01/29 01:36:08;;;;;;;32.53;13.23;;;;;;;-4.05;100.00;102894.16;5054944;28;20028;-81
2023/01/29 01:38:43;;;;;;;37.08;13.65;;;;;;;-4.03;100.00;102897.50;5069211;28;20093;-81
2023/01/29 01:41:20;;;;;;;34.65;13.82;;;;;;;-4.08;100.00;102891.75;5050713;28;20059;-81
2023/01/29 01:43:54;;;;;;;34.75;14.25;;;;;;;-4.10;100.00;102897.06;5072040;28;20051;-81
2023/01/29 01:46:21;;;;;;;36.88;14.48;;;;;;;-4.21;100.00;102890.00;5073173;28;20490;-83
2023/01/29 01:48:52;;;;;;;34.27;13.87;;;;;;;-4.22;100.00;102896.19;5071124;28;20487;-83
2023/01/29 01:51:19;;;;;;;34.20;13.50;;;;;;;-4.27;100.00;102885.19;5071797;28;20341;-83
2023/01/29 01:54:22;;;;;;;34.47;13.50;;;;;;;-4.27;100.00;102888.63;5070255;28;20103;-83
2023/01/29 01:56:54;;;;;;;31.60;13.18;;;;;;;-4.35;100.00;102887.50;5020302;28;20144;-83
2023/01/29 01:59:21;;;;;;;39.13;13.75;;;;;;;-4.37;100.00;102900.72;5051516;28;20024;-83
2023/01/29 02:01:52;;;;;;;38.58;14.60;;;;;;;-4.36;100.00;102902.38;5051455;28;20025;-83
2023/01/29 02:10:07;;;;;;;34.50;13.73;;;;;;;-4.43;100.00;102904.59;5069775;28;20336;-81
2023/01/29 02:12:35;;;;;;;34.95;13.40;;;;;;;-4.43;100.00;102908.97;5069229;28;20040;-81
2023/01/29 02:15:01;;;;;;;36.78;13.95;;;;;;;-4.50;100.00;102895.50;5070305;28;20027;-81
2023/01/29 02:17:26;;;;;;;34.50;13.23;;;;;;;-4.54;100.00;102904.50;5070706;28;20024;-81
2023/01/29 02:20:14;;;;;;;37.60;14.77;;;;;;;-4.53;100.00;102900.94;5071040;28;20047;-81
2023/01/29 02:23:01;;;;;;;39.63;14.73;;;;;;;-4.53;100.00;102916.63;5072427;28;20058;-83
2023/01/29 02:25:38;;;;;;;37.87;14.03;;;;;;;-4.51;100.00;102916.53;5068720;28;20035;-82
2023/01/29 02:28:20;;;;;;;41.03;13.73;;;;;;;-4.50;100.00;102913.81;5068685;28;20024;-83
2023/01/29 02:31:20;;;;;;;37.15;15.07;;;;;;;-4.38;100.00;102914.75;5051723;28;20032;-83
2023/01/29 02:34:16;;;;;;;39.80;14.68;;;;;;;-4.23;100.00;102915.47;4969965;28;20122;-83
2023/01/29 02:37:01;;;;;;;36.83;15.15;;;;;;;-4.14;100.00;102903.50;5059134;28;20120;-83
2023/01/29 02:39:35;;;;;;;38.33;14.63;;;;;;;-4.03;100.00;102916.66;5069818;28;20024;-82
2023/01/29 02:42:19;;;;;;;48.47;16.13;;;;;;;-3.95;100.00;102908.25;5069321;28;20360;-83
2023/01/29 02:44:58;;;;;;;40.47;15.52;;;;;;;-3.85;100.00;102909.28;5069211;28;20112;-82
2023/01/29 02:47:29;;;;;;;51.20;18.38;;;;;;;-3.68;100.00;102908.03;5070136;28;20063;-82
2023/01/29 02:50:01;;;;;;;45.10;16.35;;;;;;;-3.55;100.00;102910.59;5070296;28;20025;-83
2023/01/29 02:53:05;;;;;;;44.13;15.52;;;;;;;-3.45;100.00;102912.53;5068426;28;20028;-83
2023/01/29 02:55:43;;;;;;;41.60;15.40;;;;;;;-3.37;100.00;102908.38;5069891;28;20372;-83
2023/01/29 02:58:35;;;;;;;40.83;15.00;;;;;;;-3.30;100.00;102908.78;5069982;28;20378;-83
2023/01/29 03:01:19;;;;;;;37.50;14.95;;;;;;;-3.28;100.00;102900.78;5066502;28;20041;-83
2023/01/29 03:03:50;;;;;;;38.15;15.20;;;;;;;-3.24;100.00;102897.00;5070209;28;20020;-82
2023/01/29 03:06:31;;;;;;;37.22;14.93;;;;;;;-3.16;100.00;102906.91;5069687;28;20024;-83
2023/01/29 03:09:03;;;;;;;38.47;16.23;;;;;;;-3.12;100.00;102909.19;5049968;28;20510;-83
2023/01/29 03:11:38;;;;;;;37.85;14.88;;;;;;;-3.09;100.00;102905.47;5078971;28;20056;-82
2023/01/29 03:14:13;;;;;;;36.03;15.07;;;;;;;-3.05;100.00;102896.44;5079016;28;20029;-83
2023/01/29 03:16:50;;;;;;;39.15;15.18;;;;;;;-3.07;100.00;102904.44;5079384;28;20031;-82
2023/01/29 03:19:37;;;;;;;40.05;15.02;;;;;;;-3.01;100.00;102902.31;5069484;28;20044;-83
2023/01/29 03:22:04;;;;;;;41.08;15.48;;;;;;;-2.97;100.00;102903.72;5070073;28;20023;-83
2023/01/29 03:33:34;;;;;;;37.63;14.88;;;;;;;-2.85;100.00;102891.47;5055181;28;20035;-85
2023/01/29 03:36:09;;;;;;;38.45;15.32;;;;;;;-2.84;100.00;102891.34;5064232;28;20111;-85
2023/01/29 03:38:35;;;;;;;39.35;15.60;;;;;;;-2.77;100.00;102900.41;5049493;28;20033;-85
2023/01/29 03:41:22;;;;;;;39.40;16.53;;;;;;;-2.75;100.00;102901.13;5071354;28;20024;-84
2023/01/29 03:44:09;;;;;;;38.53;15.25;;;;;;;-2.75;100.00;102887.19;5067654;28;20387;-85
2023/01/29 03:46:52;;;;;;;39.90;15.35;;;;;;;-2.63;100.00;102895.88;5069081;28;20572;-84
2023/01/29 03:49:20;;;;;;;37.28;15.02;;;;;;;-2.60;100.00;102891.25;5069036;28;20149;-84
2023/01/29 03:51:59;;;;;;;37.13;15.93;;;;;;;-2.57;100.00;102879.66;5070744;28;20036;-84
2023/01/29 03:54:28;;;;;;;41.87;15.70;;;;;;;-2.55;100.00;102885.63;5050752;28;20044;-84
2023/01/29 03:57:48;;;;;;;37.97;16.33;;;;;;;-2.46;100.00;102870.94;5074602;28;20777;-84
2023/01/29 04:00:22;;;;;;;37.33;15.57;;;;;;;-2.43;100.00;102865.47;4968480;28;20066;-83
2023/01/29 04:03:08;;;;;;;39.72;15.60;;;;;;;-2.39;100.00;102872.16;5068364;28;20108;-83
2023/01/29 04:05:43;;;;;;;37.83;16.13;;;;;;;-2.33;100.00;102876.91;5070756;28;20032;-84
2023/01/29 04:08:16;;;;;;;38.83;15.52;;;;;;;-2.28;100.00;102868.66;5053697;28;20029;-84
2023/01/29 04:10:45;;;;;;;43.37;15.73;;;;;;;-2.28;100.00;102853.72;5055596;28;20028;-84
2023/01/29 04:13:13;;;;;;;37.63;15.97;;;;;;;-2.23;100.00;102852.53;5067343;28;20285;-84
2023/01/29 04:15:45;;;;;;;39.22;14.93;;;;;;;-2.21;100.00;102858.50;5068413;28;20115;-84
2023/01/29 04:18:10;;;;;;;41.00;16.08;;;;;;;-2.17;100.00;102852.88;5068895;28;20041;-84
2023/01/29 04:20:36;;;;;;;46.93;18.20;;;;;;;-2.20;100.00;102850.50;5051755;28;20093;-84
2023/01/29 04:23:05;;;;;;;41.13;17.23;;;;;;;-2.13;100.00;102856.09;5069546;28;20021;-84
2023/01/29 04:25:41;;;;;;;38.38;16.70;;;;;;;-2.08;100.00;102853.06;5068632;28;20086;-84
2023/01/29 04:28:22;;;;;;;41.65;16.60;;;;;;;-2.05;100.00;102851.06;5067100;28;20078;-84
2023/01/29 04:30:57;;;;;;;40.50;16.33;;;;;;;-2.03;100.00;102850.94;5069370;28;20025;-83
2023/01/29 04:33:48;;;;;;;36.90;15.13;;;;;;;-2.01;100.00;102849.84;5067489;28;20558;-84
2023/01/29 04:36:27;;;;;;;39.13;15.93;;;;;;;-1.98;100.00;102849.59;5065706;28;20314;-84
2023/01/29 04:39:11;;;;;;;38.97;15.80;;;;;;;-1.95;100.00;102845.03;5064029;28;20364;-83
2023/01/29 04:41:39;;;;;;;43.47;16.55;;;;;;;-1.92;100.00;102844.81;5069694;28;20020;-84
2023/01/29 04:44:26;;;;;;;39.05;16.95;;;;;;;-1.90;100.00;102851.59;5068525;28;20036;-84
2023/01/29 04:47:00;;;;;;;40.75;16.98;;;;;;;-1.88;100.00;102833.91;5067155;28;20037;-84
2023/01/29 04:49:44;;;;;;;40.78;16.83;;;;;;;-1.86;100.00;102828.53;5066728;28;20127;-85
2023/01/29 04:52:36;;;;;;;37.90;15.47;;;;;;;-1.82;100.00;102827.31;5069692;28;20107;-84
2023/01/29 05:00:21;;;;;;;46.20;18.08;;;;;;;-1.75;100.00;102812.72;5639691;22;20068;-84
2023/01/29 05:02:47;;;;;;;40.08;16.63;;;;;;;-1.73;100.00;102800.28;5050753;28;20033;-84
2023/01/29 05:05:17;;;;;;;44.80;17.65;;;;;;;-1.72;100.00;102799.31;5056946;28;20111;-83
2023/01/29 05:07:43;;;;;;;45.77;17.73;;;;;;;-1.65;100.00;102798.81;5072656;28;20108;-83
2023/01/29 05:10:11;;;;;;;45.42;17.08;;;;;;;-1.63;100.00;102802.13;5071988;28;20021;-83
2023/01/29 05:12:39;;;;;;;41.80;17.17;;;;;;;-1.61;100.00;102794.94;5072794;28;20028;-83
2023/01/29 05:15:11;;;;;;;44.30;18.02;;;;;;;-1.59;100.00;102793.03;5054996;28;20048;-83
2023/01/29 05:17:37;;;;;;;44.75;16.88;;;;;;;-1.55;100.00;102808.41;5052448;28;20037;-82
2023/01/29 05:20:02;;;;;;;40.83;17.43;;;;;;;-1.56;100.00;102801.50;5057542;28;20490;-86
2023/01/29 05:22:29;;;;;;;43.25;18.05;;;;;;;-1.54;100.00;102799.56;5052609;28;20017;-87
2023/01/29 05:24:55;;;;;;;41.15;17.98;;;;;;;-1.54;100.00;102788.22;5041294;28;20037;-88
2023/01/29 05:30:14;;;;;;;41.23;17.33;;;;;;;-1.49;100.00;102786.06;5053487;28;20051;-87
2023/01/29 05:32:40;;;;;;;42.20;16.90;;;;;;;-1.48;100.00;102782.47;5062483;28;20279;-86
2023/01/29 05:35:06;;;;;;;41.70;17.50;;;;;;;-1.51;100.00;102772.19;5086629;28;20028;-86
2023/01/29 05:37:32;;;;;;;42.67;18.15;;;;;;;-1.47;100.00;102770.97;5033070;28;20032;-87
2023/01/29 05:39:57;;;;;;;47.30;18.20;;;;;;;-1.50;100.00;102765.13;5034376;28;20033;-86
2023/01/29 05:42:24;;;;;;;41.43;17.73;;;;;;;-1.46;100.00;102783.13;5035880;28;20384;-86
2023/01/29 05:44:50;;;;;;;43.35;18.02;;;;;;;-1.42;100.00;102792.44;5056617;28;20045;-87
2023/01/29 05:47:20;;;;;;;41.03;17.73;;;;;;;-1.47;100.00;102778.88;5053116;28;20022;-86
2023/01/29 05:49:46;;;;;;;48.78;18.63;;;;;;;-1.41;100.00;102788.03;5072827;28;20025;-88
2023/01/29 05:52:12;;;;;;;39.23;18.03;;;;;;;-1.42;100.00;102783.72;5063441;28;20455;-88
2023/01/29 05:54:38;;;;;;;43.78;17.95;;;;;;;-1.34;100.00;102790.97;5052467;28;20021;-88
2023/01/29 05:57:03;;;;;;;45.07;18.30;;;;;;;-1.33;100.00;102790.84;5053859;28;20491;-89
2023/01/29 05:59:30;;;;;;;44.87;19.30;;;;;;;-1.33;100.00;102790.00;5052981;28;20124;-88
2023/01/29 06:01:56;;;;;;;44.25;18.38;;;;;;;-1.31;100.00;102791.53;5048665;28;20029;-88
2023/01/29 06:04:21;;;;;;;41.47;18.65;;;;;;;-1.27;100.00;102800.00;5052234;28;20428;-88
2023/01/29 06:06:47;;;;;;;44.73;18.60;;;;;;;-1.26;100.00;102791.13;5051342;28;20064;-88
2023/01/29 06:09:12;;;;;;;46.37;18.73;;;;;;;-1.29;100.00;102808.03;5050762;28;20033;-88
2023/01/29 06:11:38;;;;;;;48.77;18.97;;;;;;;-1.25;100.00;102819.13;5034877;28;20033;-88
2023/01/29 06:14:03;;;;;;;47.80;20.38;;;;;;;-1.26;100.00;102809.56;5034321;28;20036;-88
2023/01/29 06:16:28;;;;;;;42.73;19.13;;;;;;;-1.23;100.00;102822.44;5044031;28;20032;-88
2023/01/29 06:18:54;;;;;;;43.90;19.83;;;;;;;-1.22;100.00;102818.84;5050340;28;20116;-89
2023/01/29 06:21:19;;;;;;;47.17;20.13;;;;;;;-1.25;100.00;102822.59;5053742;28;20365;-87
2023/01/29 06:23:44;;;;;;;46.95;20.42;;;;;;;-1.20;100.00;102832.72;5052666;28;20044;-89
2023/01/29 06:26:13;;;;;;;43.90;18.23;;;;;;;-1.17;100.00;102832.47;5034364;28;20096;-88
2023/01/29 06:28:39;;;;;;;45.13;19.13;;;;;;;-1.15;100.00;102835.81;5041781;28;20295;-87
2023/01/29 06:31:07;;;;;;;48.35;20.10;;;;;;;-1.13;100.00;102828.63;5072536;28;20067;-88
2023/01/29 06:33:33;;;;;;;45.63;19.35;;;;;;;-1.11;100.00;102799.53;5061733;28;20021;-88
2023/01/29 06:36:00;;;;;;;46.17;20.20;;;;;;;-1.11;100.00;102792.47;5051438;28;20380;-88
2023/01/29 06:38:27;;;;;;;49.63;20.67;;;;;;;-1.08;100.00;102783.47;5050352;28;20033;-88
2023/01/29 06:40:53;;;;;;;60.08;26.33;;;;;;;-1.05;100.00;102774.47;5052875;28;20050;-87
2023/01/29 06:43:19;;;;;;;49.63;21.15;;;;;;;-1.04;100.00;102773.50;5052705;28;20025;-88
2023/01/29 06:45:57;;;;;;;51.13;20.23;;;;;;;-1.03;100.00;102781.28;5052852;28;20033;-87
2023/01/29 06:48:24;;;;;;;47.88;20.42;;;;;;;-1.01;100.00;102795.16;5050928;28;20082;-88
2023/01/29 06:50:50;;;;;;;50.78;20.75;;;;;;;-1.04;100.00;102784.91;5051320;28;20086;-87
2023/01/29 06:53:16;;;;;;;49.50;21.63;;;;;;;-1.05;100.00;102777.97;5049128;28;20431;-88
2023/01/29 06:55:43;;;;;;;53.22;21.27;;;;;;;-0.99;100.00;102776.59;5036986;28;20522;-89
2023/01/29 06:58:10;;;;;;;50.13;20.85;;;;;;;-0.99;100.00;102772.16;5068046;28;20029;-89
2023/01/29 07:00:37;;;;;;;54.65;22.70;;;;;;;-0.99;100.00;102776.59;5053976;28;20025;-89
2023/01/29 07:03:03;;;;;;;46.13;20.00;;;;;;;-0.98;100.00;102773.00;5058463;28;20020;-89
2023/01/29 07:05:29;;;;;;;50.90;20.90;;;;;;;-1.04;100.00;102760.34;5071255;28;20060;-88
2023/01/29 07:07:56;;;;;;;46.80;20.08;;;;;;;-1.00;100.00;102770.47;5052422;28;20061;-89
2023/01/29 07:10:21;;;;;;;47.35;20.45;;;;;;;-0.94;100.00;102777.84;5053970;28;20136;-88
2023/01/29 07:12:47;;;;;;;44.80;19.33;;;;;;;-0.99;100.00;102760.81;5033546;28;20027;-89
2023/01/29 07:15:18;;;;;;;47.73;20.63;;;;;;;-0.95;100.00;102764.84;5051781;28;20530;-89
2023/01/29 07:17:43;;;;;;;44.13;19.70;;;;;;;-0.98;100.00;102758.03;5050109;28;20369;-88
2023/01/29 07:20:09;;;;;;;49.87;21.07;;;;;;;-0.87;100.00;102783.41;5051688;28;20036;-88
2023/01/29 07:22:35;;;;;;;51.65;21.58;;;;;;;-0.85;100.00;102776.22;5051939;28;20020;-88
2023/01/29 07:25:00;;;;;;;48.67;20.97;;;;;;;-0.85;100.00;102784.13;5048295;28;20035;-86
2023/01/29 07:27:26;;;;;;;51.80;22.13;;;;;;;-0.87;100.00;102775.53;5060012;28;20422;-90
2023/01/29 07:29:52;;;;;;;44.90;20.00;;;;;;;-0.86;100.00;102774.56;5048954;28;20111;-89
2023/01/29 07:32:17;;;;;;;52.42;22.60;;;;;;;-0.83;100.00;102770.84;5050500;28;20479;-90
2023/01/29 07:34:45;;;;;;;47.13;20.10;;;;;;;-0.83;100.00;102779.56;5051595;28;20043;-85
2023/01/29 07:37:12;;;;;;;51.97;21.73;;;;;;;-0.83;100.00;102766.41;5050735;28;20057;-89
2023/01/29 07:39:39;;;;;;;78.77;34.13;;;;;;;-0.79;100.00;102765.16;5049776;28;20329;-87
2023/01/29 07:42:04;;;;;;;54.25;24.52;;;;;;;-0.82;100.00;102754.09;5051029;28;20092;-91
2023/01/29 07:44:29;;;;;;;46.88;20.88;;;;;;;-0.73;100.00;102762.97;5063747;28;20123;-88
2023/01/29 07:46:55;;;;;;;74.20;27.73;;;;;;;-0.74;100.00;102759.50;5065628;28;20029;-88
2023/01/29 07:49:21;;;;;;;67.03;27.53;;;;;;;-0.80;100.00;102758.22;5050800;28;20025;-88
2023/01/29 07:51:46;;;;;;;52.95;21.85;;;;;;;-0.77;100.00;102760.59;5051682;28;20025;-88
2023/01/29 07:54:12;;;;;;;58.60;23.03;;;;;;;-0.75;100.00;102775.44;5032110;28;20433;-88
2023/01/29 07:56:37;;;;;;;53.20;22.77;;;;;;;-0.73;100.00;102781.41;5032749;28;20052;-88
2023/01/29 07:59:02;;;;;;;67.10;27.03;;;;;;;-0.75;100.00;102772.81;5053396;28;20020;-86
2023/01/29 08:01:28;;;;;;;50.83;21.30;;;;;;;-0.66;100.00;102766.72;5041472;28;20032;-86
2023/01/29 08:03:53;;;;;;;43.88;19.33;;;;;;;-0.75;100.00;102752.56;5053985;28;20507;-86
2023/01/29 08:06:18;;;;;;;46.57;19.67;;;;;;;-0.74;100.00;102754.22;5054846;28;20055;-86
2023/01/29 08:08:45;;;;;;;49.07;20.40;;;;;;;-0.75;100.00;102752.56;5039280;28;20041;-87
2023/01/29 08:11:10;;;;;;;44.13;20.35;;;;;;;-0.70;100.00;102746.88;5049464;28;20049;-87
2023/01/29 08:13:36;;;;;;;52.70;21.53;;;;;;;-0.59;100.00;102757.31;5056237;28;20091;-86
2023/01/29 08:16:03;;;;;;;45.60;20.17;;;;;;;-0.58;100.00;102753.72;5059208;28;20039;-88
2023/01/29 08:18:30;;;;;;;46.50;21.38;;;;;;;-0.53;100.00;102766.47;5058305;28;20021;-87
2023/01/29 08:21:00;;;;;;;50.50;23.33;;;;;;;-0.51;100.00;102769.81;5064150;28;20052;-87
2023/01/29 08:23:25;;;;;;;45.25;20.75;;;;;;;-0.50;100.00;102763.56;5050246;28;20017;-87
2023/01/29 08:28:26;;;;;;;46.38;20.17;;;;;;;-0.43;100.00;102764.66;5805961;22;20089;-87
2023/01/29 08:30:58;;;;;;;44.53;19.73;;;;;;;-0.56;100.00;102735.97;5024453;28;20096;-87
2023/01/29 08:33:28;;;;;;;40.53;18.95;;;;;;;-0.49;100.00;102742.34;5017795;28;20018;-87
2023/01/29 08:35:53;;;;;;;44.80;19.58;;;;;;;-0.39;100.00;102746.81;5030236;28;20017;-87
2023/01/29 08:38:19;;;;;;;39.95;17.65;;;;;;;-0.40;100.00;102747.78;5007919;28;20084;-87
2023/01/29 08:40:49;;;;;;;40.20;18.07;;;;;;;-0.42;100.00;102732.09;5016187;28;20032;-88
2023/01/29 08:43:15;;;;;;;43.95;18.67;;;;;;;-0.37;100.00;102739.59;5016311;28;20026;-90
2023/01/29 08:45:42;;;;;;;41.90;17.67;;;;;;;-0.37;100.00;102727.25;5015571;28;20087;-90
2023/01/29 08:48:08;;;;;;;41.63;18.67;;;;;;;-0.33;100.00;102720.75;5002994;28;20029;-90
2023/01/29 08:50:35;;;;;;;41.30;19.75;;;;;;;-0.39;100.00;102708.09;5019569;28;20030;-89
2023/01/29 08:53:04;;;;;;;46.15;19.38;;;;;;;-0.26;100.00;102722.81;5010539;28;20050;-87
2023/01/29 08:55:29;;;;;;;36.43;17.00;;;;;;;-0.17;100.00;102729.88;5004420;28;20034;-88
2023/01/29 08:57:57;;;;;;;41.30;18.35;;;;;;;-0.12;100.00;102743.50;5017212;28;20107;-90
2023/01/29 09:00:24;;;;;;;38.40;17.47;;;;;;;-0.09;100.00;102739.72;5018252;28;20026;-89
2023/01/29 09:02:51;;;;;;;41.03;18.20;;;;;;;-0.10;100.00;102732.78;5016068;28;20030;-88
2023/01/29 09:05:16;;;;;;;45.40;18.98;;;;;;;0.03;100.00;102740.41;5017989;28;20084;-90
2023/01/29 09:07:42;;;;;;;37.73;17.13;;;;;;;0.05;100.00;102730.56;5019016;28;20457;-92
2023/01/29 09:10:08;;;;;;;41.17;18.10;;;;;;;0.11;100.00;102737.91;5014023;28;20303;-90
2023/01/29 09:12:35;;;;;;;40.13;18.17;;;;;;;0.19;100.00;102731.91;5020187;28;20036;-90
2023/01/29 09:15:00;;;;;;;41.03;18.20;;;;;;;0.21;100.00;102728.19;4996162;28;20791;-90
2023/01/29 09:17:27;;;;;;;35.33;17.77;;;;;;;0.18;100.00;102711.81;5003683;28;20066;-89
2023/01/29 09:19:57;;;;;;;35.33;16.17;;;;;;;0.21;100.00;102722.91;4992763;28;20156;-88
2023/01/29 09:22:23;;;;;;;36.50;17.73;;;;;;;0.27;100.00;102727.59;4998950;28;20296;-88
2023/01/29 09:24:48;;;;;;;37.42;16.77;;;;;;;0.27;100.00;102710.97;4994295;28;20038;-89
2023/01/29 09:27:16;;;;;;;35.90;17.10;;;;;;;0.35;100.00;102712.88;4986545;28;20054;-89
2023/01/29 09:29:43;;;;;;;34.72;15.80;;;;;;;0.38;100.00;102716.06;5013076;28;20388;-87
2023/01/29 09:32:08;;;;;;;34.70;16.15;;;;;;;0.48;100.00;102709.94;4993947;28;20026;-87
2023/01/29 09:34:35;;;;;;;36.60;17.27;;;;;;;0.54;100.00;102714.63;5010982;28;20397;-87
2023/01/29 09:37:00;;;;;;;35.20;16.25;;;;;;;0.56;100.00;102712.66;5030984;28;20477;-87
2023/01/29 09:39:28;;;;;;;38.53;16.63;;;;;;;0.62;100.00;102722.66;5013719;28;20106;-87
2023/01/29 09:42:15;;;;;;;39.72;18.50;;;;;;;0.60;100.00;102706.97;5017433;28;20053;-86
2023/01/29 09:45:05;;;;;;;32.17;16.65;;;;;;;0.70;100.00;102727.19;5013349;28;20034;-86
2023/01/29 09:47:34;;;;;;;34.63;16.48;;;;;;;0.73;100.00;102713.72;5011793;28;20033;-86
2023/01/29 09:50:05;;;;;;;36.47;16.63;;;;;;;0.77;100.00;102722.16;5013063;28;20034;-86
2023/01/29 09:52:36;;;;;;;33.03;15.80;;;;;;;0.80;100.00;102716.59;5012773;28;20280;-87
2023/01/29 09:55:28;;;;;;;32.28;15.27;;;;;;;0.83;100.00;102711.03;5012318;28;20030;-86
2023/01/29 09:57:57;;;;;;;33.88;15.68;;;;;;;0.93;100.00;102711.00;5014373;28;20034;-85
2023/01/29 10:00:36;;;;;;;30.92;15.07;;;;;;;0.94;100.00;102702.91;5029507;28;20022;-89
2023/01/29 10:03:27;;;;;;;30.17;14.63;;;;;;;0.96;100.00;102706.25;5025434;28;20030;-88
2023/01/29 10:06:32;;;;;;;36.78;15.93;;;;;;;1.03;100.00;102706.47;5024061;28;20020;-87
2023/01/29 10:09:00;;;;;;;30.00;14.90;;;;;;;1.06;100.00;102724.66;4991285;28;20042;-87
2023/01/29 10:11:58;;;;;;;33.00;16.67;;;;;;;1.08;100.00;102719.25;5022645;28;20038;-87
2023/01/29 10:15:01;;;;;;;32.42;15.52;;;;;;;1.11;100.00;102722.44;5020331;28;20045;-85
2023/01/29 10:17:55;;;;;;;33.97;15.52;;;;;;;1.12;100.00;102721.44;5010899;28;20041;-86
2023/01/29 10:20:59;;;;;;;31.42;14.98;;;;;;;1.18;100.00;102728.78;5016131;28;20370;-87
2023/01/29 10:23:33;;;;;;;30.73;15.32;;;;;;;1.20;100.00;102718.88;5015120;28;20041;-85
2023/01/29 10:25:59;;;;;;;29.75;14.48;;;;;;;1.17;100.00;102706.00;4996207;28;20045;-85
2023/01/29 10:28:34;;;;;;;32.85;16.17;;;;;;;1.25;100.00;102714.97;5016761;28;20029;-87
2023/01/29 10:31:11;;;;;;;29.10;14.37;;;;;;;1.25;100.00;102712.31;5020724;28;20033;-86
2023/01/29 10:41:36;;;;;;;31.35;14.82;;;;;;;1.41;100.00;102711.69;5274736;23;20053;-86
2023/01/29 10:44:20;;;;;;;29.15;14.18;;;;;;;1.36;100.00;102689.19;5058772;28;20028;-89
2023/01/29 10:47:17;;;;;;;30.58;13.77;;;;;;;1.54;100.00;102720.06;5049105;28;20030;-89
2023/01/29 10:50:08;;;;;;;30.40;14.93;;;;;;;1.55;99.59;102711.16;5043030;28;20053;-90
2023/01/29 10:52:57;;;;;;;30.30;16.63;;;;;;;1.60;100.00;102713.31;5052867;28;20092;-89
2023/01/29 10:55:51;;;;;;;29.33;15.05;;;;;;;1.64;99.92;102709.41;5058068;28;20013;-88
2023/01/29 10:58:56;;;;;;;27.08;13.73;;;;;;;1.69;100.00;102701.00;5033045;28;20048;-87
2023/01/29 11:01:21;;;;;;;29.52;15.20;;;;;;;1.75;99.71;102711.00;5051093;28;20029;-88
2023/01/29 11:03:56;;;;;;;30.60;14.97;;;;;;;1.82;99.40;102698.84;5050221;28;20059;-89
2023/01/29 11:06:31;;;;;;;27.55;14.10;;;;;;;1.89;99.34;102691.94;5050816;28;20075;-88
2023/01/29 11:09:31;;;;;;;30.00;14.43;;;;;;;1.96;98.47;102678.91;5032843;28;20033;-89
2023/01/29 11:12:10;;;;;;;29.15;14.73;;;;;;;1.94;97.35;102678.25;5027443;28;20501;-87
2023/01/29 11:14:47;;;;;;;29.20;14.35;;;;;;;2.07;98.30;102672.56;5039188;28;20057;-86
2023/01/29 11:17:17;;;;;;;31.80;15.10;;;;;;;2.11;96.76;102658.03;5030416;28;20401;-88
2023/01/29 11:19:46;;;;;;;28.85;16.15;;;;;;;2.11;95.88;102653.56;5035938;28;20045;-88
2023/01/29 11:22:18;;;;;;;28.08;14.30;;;;;;;2.16;95.01;102644.34;5038140;28;20021;-89
2023/01/29 11:24:45;;;;;;;31.33;13.73;;;;;;;2.25;95.40;102638.13;5019070;28;20025;-87
2023/01/29 11:27:22;;;;;;;29.50;16.25;;;;;;;2.36;95.78;102640.47;5032562;28;20026;-90
2023/01/29 11:29:48;;;;;;;25.23;13.00;;;;;;;2.44;94.50;102630.94;5016542;28;20018;-90
2023/01/29 11:32:20;;;;;;;24.00;11.83;;;;;;;2.52;94.80;102634.44;5051297;28;20609;-89
2023/01/29 11:35:18;;;;;;;23.50;12.30;;;;;;;2.56;93.44;102625.16;5048324;28;20303;-88
2023/01/29 11:37:47;;;;;;;25.48;12.45;;;;;;;2.56;92.79;102609.28;5048220;28;20037;-89
2023/01/29 11:40:32;;;;;;;25.45;13.38;;;;;;;2.58;93.02;102604.66;5038088;28;20107;-89
2023/01/29 11:43:11;;;;;;;24.92;12.80;;;;;;;2.55;91.17;102604.16;5056500;28;20018;-89
2023/01/29 11:45:40;;;;;;;24.95;12.57;;;;;;;2.60;92.35;102601.88;5032933;28;20018;-89
2023/01/29 11:48:13;;;;;;;23.35;11.90;;;;;;;2.69;91.08;102597.44;5031362;28;20018;-88
2023/01/29 11:50:39;;;;;;;22.83;11.77;;;;;;;2.68;91.09;102591.28;5007811;28;20085;-88
2023/01/29 12:02:57;;;;;;;23.13;11.97;;;;;;;2.91;90.41;102561.56;5325627;22;20632;-86
2023/01/29 12:05:24;;;;;;;24.25;11.48;;;;;;;2.98;89.12;102551.97;5059465;28;20048;-88
2023/01/29 12:07:56;;;;;;;24.30;13.02;;;;;;;3.03;89.20;102540.88;5072428;28;20551;-90
2023/01/29 12:10:36;;;;;;;24.42;12.35;;;;;;;2.98;89.48;102506.13;5068178;28;20017;-88
2023/01/29 12:13:24;;;;;;;21.98;12.35;;;;;;;3.23;88.82;102529.97;5076270;28;20323;-87
2023/01/29 12:16:10;;;;;;;26.10;13.85;;;;;;;3.10;87.13;102517.22;5077436;28;20040;-87
2023/01/29 12:18:43;;;;;;;26.07;12.73;;;;;;;3.10;87.80;102526.00;5073297;28;20013;-87
2023/01/29 12:21:17;;;;;;;23.47;12.37;;;;;;;3.10;89.11;102512.75;5041134;28;20276;-89